Time;durP1;ratioP1;P1;durP2;ratioP2;P2;SDS_P1;SDS_P2;PMS_P1;PMS_P2;Temp;Humidity;BMP_temperature;BMP_pressure;BME280_temperature;BME280_humidity;BME280_pressure;Samples;Min_cycle;Max_cycle;Signal;HPM_P1;HPM_P2
2022/11/16 00:02:21;;;;;;;26.25;14.50;;;;;;;9.61;68.06;99179.72;7738216;32;37162;-83
2022/11/16 00:06:37;;;;;;;30.92;15.23;;;;;;;9.71;67.67;99181.56;7738190;32;40179;-81
2022/11/16 00:10:54;;;;;;;27.90;14.18;;;;;;;9.82;67.22;99166.00;7738885;32;39867;-82
2022/11/16 00:15:10;;;;;;;29.48;14.38;;;;;;;9.90;66.62;99168.94;7738056;32;38695;-82
2022/11/16 00:19:27;;;;;;;29.77;15.05;;;;;;;10.02;66.48;99157.69;7738034;32;37288;-83
2022/11/16 00:23:43;;;;;;;35.92;16.95;;;;;;;10.02;66.42;99160.41;7737914;32;39393;-81
2022/11/16 00:27:59;;;;;;;36.63;16.23;;;;;;;9.63;67.97;99146.78;7737637;32;39973;-80
2022/11/16 00:32:16;;;;;;;31.45;16.67;;;;;;;9.71;67.67;99138.84;7737791;32;38607;-82
2022/11/16 00:36:32;;;;;;;35.80;16.65;;;;;;;9.57;68.11;99129.66;7748303;32;37244;-82
2022/11/16 00:40:48;;;;;;;34.22;16.83;;;;;;;9.65;67.99;99122.81;7764543;32;39371;-82
2022/11/16 00:45:05;;;;;;;30.55;15.75;;;;;;;9.76;67.71;99118.91;7764515;32;40832;-81
2022/11/16 00:49:21;;;;;;;33.20;16.50;;;;;;;9.85;67.41;99117.25;7764425;32;37524;-81
2022/11/16 00:53:37;;;;;;;34.33;16.80;;;;;;;9.76;67.31;99113.47;7764458;32;37311;-82
2022/11/16 00:57:53;;;;;;;32.70;16.80;;;;;;;9.80;67.50;99111.03;7764331;32;39353;-83
2022/11/16 01:02:11;;;;;;;31.27;15.60;;;;;;;10.21;65.63;99105.22;7750249;32;39848;-83
2022/11/16 01:06:27;;;;;;;32.88;17.23;;;;;;;9.80;67.24;99100.13;7754773;32;37967;-82
2022/11/16 01:10:44;;;;;;;36.33;17.25;;;;;;;9.64;67.88;99094.81;7736862;32;37200;-83
2022/11/16 01:15:00;;;;;;;36.72;17.08;;;;;;;9.84;66.86;99077.50;7737039;32;40069;-82
2022/11/16 01:19:16;;;;;;;35.20;16.67;;;;;;;9.47;68.78;99083.47;7736812;32;39947;-82
2022/11/16 01:23:32;;;;;;;33.17;16.80;;;;;;;9.67;67.72;99072.44;7736566;32;38696;-84
2022/11/16 01:27:48;;;;;;;38.25;18.58;;;;;;;10.09;66.20;99071.03;7736367;32;38170;-83
2022/11/16 01:32:05;;;;;;;39.17;18.10;;;;;;;10.15;65.97;99067.16;7737258;32;40027;-83
2022/11/16 01:36:21;;;;;;;42.62;18.60;;;;;;;10.04;66.63;99065.63;7736440;32;40836;-83
2022/11/16 01:40:38;;;;;;;37.20;18.27;;;;;;;10.29;65.58;99050.94;7722440;32;38770;-83
2022/11/16 01:44:59;;;;;;;42.70;18.52;;;;;;;10.09;66.07;99051.97;7736275;32;37965;-83
2022/11/16 01:49:19;;;;;;;42.38;18.85;;;;;;;9.62;68.23;99044.47;7722890;32;38988;-82
2022/11/16 01:53:36;;;;;;;44.92;19.52;;;;;;;9.92;67.12;99044.22;7722731;32;39958;-83
2022/11/16 01:57:53;;;;;;;43.90;20.05;;;;;;;9.80;67.83;99038.34;7735947;32;39160;-83
2022/11/16 02:02:09;;;;;;;36.50;18.55;;;;;;;9.57;68.57;99028.97;7738538;32;37434;-83
2022/11/16 02:06:31;;;;;;;45.83;20.83;;;;;;;9.63;68.24;99016.97;7762599;32;40131;-83
2022/11/16 02:10:56;;;;;;;42.83;19.48;;;;;;;9.76;68.00;99021.75;7762591;32;39721;-83
2022/11/16 02:15:34;;;;;;;42.08;19.33;;;;;;;9.82;67.87;99013.56;7762431;32;38832;-83
2022/11/16 02:20:12;;;;;;;41.28;19.85;;;;;;;9.76;67.79;99005.44;7749849;32;37904;-83
2022/11/16 02:24:48;;;;;;;47.45;18.87;;;;;;;9.87;67.96;99000.69;7759573;32;218874;-83
2022/11/16 02:29:10;;;;;;;44.17;18.60;;;;;;;9.83;67.74;99004.28;7757716;32;39938;-84
2022/11/16 02:33:34;;;;;;;45.37;18.73;;;;;;;9.88;67.64;99001.50;7740105;32;37868;-84
2022/11/16 02:37:55;;;;;;;43.38;19.50;;;;;;;9.68;68.43;98997.88;7726205;32;37999;-83
2022/11/16 02:42:16;;;;;;;41.28;17.25;;;;;;;9.46;69.92;98989.34;7725842;32;40146;-84
2022/11/16 02:46:36;;;;;;;43.87;18.83;;;;;;;9.73;68.56;98984.22;7725863;32;39995;-83
2022/11/16 02:50:52;;;;;;;42.72;17.15;;;;;;;9.48;69.95;98976.25;7725300;32;38696;-83
2022/11/16 02:55:09;;;;;;;38.97;16.55;;;;;;;9.37;70.21;98970.91;7725374;32;37998;-83
2022/11/16 02:59:41;;;;;;;34.40;16.05;;;;;;;9.69;69.14;98964.13;7747502;32;39062;-82
2022/11/16 03:04:15;;;;;;;43.00;17.37;;;;;;;9.58;69.14;98960.66;7753761;32;40619;-82
2022/11/16 03:08:37;;;;;;;35.78;16.42;;;;;;;9.91;68.43;98951.94;7752811;32;37982;-82
2022/11/16 03:12:53;;;;;;;38.05;15.82;;;;;;;9.49;69.75;98956.13;7752591;32;38072;-83
2022/11/16 03:17:20;;;;;;;31.60;15.95;;;;;;;10.01;67.72;98934.69;7751991;32;39319;-82
2022/11/16 03:21:44;;;;;;;39.35;16.45;;;;;;;9.93;68.04;98938.84;7765622;32;40894;-83
2022/11/16 03:26:04;;;;;;;34.78;16.37;;;;;;;9.53;69.05;98933.50;7753311;32;38748;-83
2022/11/16 03:30:30;;;;;;;37.65;15.85;;;;;;;9.93;68.03;98931.50;7725112;32;37303;-82
2022/11/16 03:35:01;;;;;;;33.53;16.08;;;;;;;9.34;69.86;98933.37;7725199;32;39056;-82
2022/11/16 03:39:27;;;;;;;33.67;15.93;;;;;;;10.06;67.75;98929.97;7725305;32;39967;-82
2022/11/16 03:43:44;;;;;;;35.35;17.05;;;;;;;9.71;68.58;98926.53;7725355;32;37860;-82
2022/11/16 03:48:00;;;;;;;37.10;16.02;;;;;;;9.73;68.67;98918.91;7724783;32;37999;-82
2022/11/16 03:52:17;;;;;;;34.28;14.80;;;;;;;10.10;67.67;98911.94;7738384;32;40079;-82
2022/11/16 03:56:34;;;;;;;35.42;16.12;;;;;;;9.73;68.74;98902.56;7738710;32;39875;-83
2022/11/16 04:00:50;;;;;;;33.95;16.05;;;;;;;9.72;69.09;98900.12;7759892;32;38630;-83
2022/11/16 04:28:12;;;;;;;38.22;15.70;;;;;;;9.92;68.39;98874.59;7764886;32;39320;-83
2022/11/16 04:50:52;;;;;;;27.67;13.75;;;;;;;9.85;68.73;98865.94;7728466;32;40035;-82
2022/11/16 04:55:09;;;;;;;30.90;13.70;;;;;;;9.70;69.17;98869.66;7737755;32;38031;-83
2022/11/16 04:59:25;;;;;;;27.83;13.38;;;;;;;10.00;67.99;98863.06;7737575;32;37510;-83
2022/11/16 05:03:41;;;;;;;26.60;13.30;;;;;;;9.66;69.37;98861.28;7737199;32;40092;-82
2022/11/16 05:07:58;;;;;;;28.92;12.60;;;;;;;9.84;68.73;98858.91;7737205;32;40677;-82
2022/11/16 05:12:17;;;;;;;27.98;12.77;;;;;;;9.78;69.38;98858.97;7737038;32;37901;-82
2022/11/16 05:16:33;;;;;;;29.92;13.68;;;;;;;9.63;69.65;98856.41;7737114;32;37738;-83
2022/11/16 05:20:59;;;;;;;22.30;12.75;;;;;;;9.94;68.87;98842.44;7760063;32;39308;-83
2022/11/16 05:25:15;;;;;;;23.73;12.25;;;;;;;9.95;68.68;98836.72;7763779;32;41115;-82
2022/11/16 05:29:32;;;;;;;30.20;12.50;;;;;;;9.89;68.75;98829.69;7763458;32;37947;-83
2022/11/16 05:33:48;;;;;;;22.42;11.55;;;;;;;9.68;69.51;98840.03;7763549;32;37171;-82
2022/11/16 05:38:05;;;;;;;24.15;12.05;;;;;;;9.52;70.20;98824.94;7763451;32;39326;-82
2022/11/16 05:42:21;;;;;;;23.73;11.10;;;;;;;9.72;69.52;98819.28;7748527;32;40587;-81
2022/11/16 05:46:37;;;;;;;23.30;12.45;;;;;;;9.66;70.08;98830.50;7736362;32;38094;-81
2022/11/16 05:50:58;;;;;;;25.67;12.37;;;;;;;9.78;69.62;98828.22;7736300;32;37529;-83
2022/11/16 05:55:15;;;;;;;26.65;11.85;;;;;;;9.88;69.05;98819.09;7737107;32;39260;-83
2022/11/16 05:59:31;;;;;;;24.75;11.98;;;;;;;9.72;69.42;98813.03;7739678;32;39561;-82
2022/11/16 06:03:47;;;;;;;19.83;11.65;;;;;;;9.79;69.42;98813.50;7739550;32;37969;-82
2022/11/16 06:08:04;;;;;;;22.17;11.12;;;;;;;9.96;68.67;98802.94;7739630;32;37270;-82
2022/11/16 06:12:20;;;;;;;23.92;12.13;;;;;;;9.90;68.85;98800.56;7740314;32;39384;-83
2022/11/16 06:16:36;;;;;;;25.08;11.70;;;;;;;9.68;69.34;98801.91;7758957;32;40835;-82
2022/11/16 06:20:52;;;;;;;21.55;11.85;;;;;;;9.86;68.89;98800.31;7766354;32;38617;-83
2022/11/16 06:25:09;;;;;;;25.12;12.20;;;;;;;9.86;68.75;98804.97;7765699;32;36854;-83
2022/11/16 06:29:26;;;;;;;22.60;12.23;;;;;;;10.05;68.62;98799.56;7739222;32;40029;-83
2022/11/16 06:33:42;;;;;;;24.48;12.52;;;;;;;10.05;68.18;98800.34;7739247;32;40084;-83
2022/11/16 06:37:58;;;;;;;22.10;11.55;;;;;;;9.95;69.02;98805.94;7739055;32;38708;-81
2022/11/16 06:42:14;;;;;;;23.10;12.13;;;;;;;10.12;68.46;98806.28;7739213;32;37909;-80
2022/11/16 06:46:31;;;;;;;24.90;12.13;;;;;;;9.78;69.57;98807.25;7755535;32;40102;-81
2022/11/16 06:50:48;;;;;;;24.63;12.40;;;;;;;10.02;68.78;98805.59;7751759;32;40210;-83
2022/11/16 06:55:05;;;;;;;24.20;12.02;;;;;;;9.83;69.61;98802.81;7738975;32;37934;-82
2022/11/16 06:59:21;;;;;;;24.42;11.05;;;;;;;9.83;69.25;98800.94;7738728;32;37275;-83
2022/11/16 07:03:37;;;;;;;24.70;11.40;;;;;;;9.73;69.94;98788.25;7738938;32;39297;-81
2022/11/16 07:07:57;;;;;;;20.45;11.00;;;;;;;9.94;69.51;98791.53;7738613;32;40828;-84
2022/11/16 07:12:13;;;;;;;21.30;10.95;;;;;;;10.11;69.06;98782.88;7751826;32;38019;-83
2022/11/16 07:16:29;;;;;;;29.15;11.25;;;;;;;9.97;70.40;98784.69;7747214;32;38382;-82
2022/11/16 07:20:45;;;;;;;22.20;11.07;;;;;;;10.23;69.84;98778.91;7741379;32;39946;-83
2022/11/16 07:25:02;;;;;;;21.05;11.20;;;;;;;10.13;70.13;98767.03;7743752;32;39934;-83
2022/11/16 07:29:20;;;;;;;21.62;11.63;;;;;;;10.09;70.48;98763.28;7738400;32;37983;-84
2022/11/16 07:33:36;;;;;;;23.60;11.52;;;;;;;10.14;69.79;98757.78;7738726;32;36440;-84
2022/11/16 07:37:52;;;;;;;23.55;11.73;;;;;;;10.53;67.72;98759.37;7738542;32;39005;-84
2022/11/16 07:42:10;;;;;;;26.20;11.95;;;;;;;10.32;68.34;98758.09;7738333;32;40550;-83
2022/11/16 07:46:26;;;;;;;22.25;11.43;;;;;;;10.52;67.19;98765.97;7738310;32;38674;-84
2022/11/16 07:51:05;;;;;;;25.67;12.48;;;;;;;10.38;68.11;98753.38;7741057;32;38311;-84
2022/11/16 07:55:24;;;;;;;24.45;11.30;;;;;;;10.43;67.98;98754.09;7738282;32;39281;-83
2022/11/16 07:59:40;;;;;;;22.65;11.95;;;;;;;10.34;67.86;98762.12;7737934;32;40134;-84
2022/11/16 08:03:57;;;;;;;27.13;12.05;;;;;;;10.27;68.54;98752.69;7737531;32;38080;-86
2022/11/16 08:08:13;;;;;;;23.30;12.95;;;;;;;10.60;67.45;98750.03;7750198;32;36989;-86
2022/11/16 08:12:30;;;;;;;27.48;12.48;;;;;;;10.32;68.42;98749.91;7729096;32;39417;-85
2022/11/16 08:16:46;;;;;;;24.80;12.65;;;;;;;10.63;67.42;98744.00;7737282;32;39878;-85
2022/11/16 08:21:03;;;;;;;29.87;13.10;;;;;;;10.27;68.78;98736.34;7737214;32;37972;-85
2022/11/16 08:25:19;;;;;;;25.15;13.10;;;;;;;10.51;68.16;98726.19;7737535;32;37889;-84
2022/11/16 08:29:35;;;;;;;31.02;14.40;;;;;;;10.10;69.45;98726.75;7737677;32;40034;-83
2022/11/16 08:33:52;;;;;;;29.10;13.25;;;;;;;10.14;69.70;98727.81;7737503;32;39851;-83
2022/11/16 08:38:08;;;;;;;25.92;13.02;;;;;;;10.30;71.24;98713.97;7737316;32;38036;-82
2022/11/16 08:42:24;;;;;;;29.77;14.52;;;;;;;10.32;69.83;98720.75;7737629;32;37559;-82
2022/11/16 08:46:40;;;;;;;27.90;14.05;;;;;;;10.51;68.58;98719.94;7737672;32;39299;-83
2022/11/16 08:51:03;;;;;;;31.05;15.15;;;;;;;10.39;68.86;98725.84;7742304;32;39936;-81
2022/11/16 08:55:35;;;;;;;34.22;14.05;;;;;;;10.12;69.71;98737.38;7737839;32;35792;-81
2022/11/16 08:59:52;;;;;;;31.45;14.95;;;;;;;10.49;68.21;98733.84;7755477;32;38019;-81
2022/11/16 09:04:08;;;;;;;34.03;15.68;;;;;;;10.29;68.71;98742.31;7764167;32;39297;-82
2022/11/16 09:08:24;;;;;;;37.10;16.45;;;;;;;9.94;70.56;98723.47;7764060;32;40907;-82
2022/11/16 09:12:40;;;;;;;30.85;15.25;;;;;;;10.29;69.26;98715.06;7764022;32;37825;-83
2022/11/16 09:16:57;;;;;;;34.05;16.60;;;;;;;10.31;69.13;98712.84;7762609;32;36935;-83
2022/11/16 09:21:22;;;;;;;37.38;17.05;;;;;;;10.19;69.59;98696.16;7741377;32;39166;-83
2022/11/16 09:25:38;;;;;;;43.25;17.55;;;;;;;10.41;69.26;98690.91;7736505;32;39967;-82
2022/11/16 09:29:54;;;;;;;35.03;16.05;;;;;;;10.29;68.96;98679.66;7748424;32;38092;-82
2022/11/16 09:34:10;;;;;;;35.22;17.73;;;;;;;10.61;68.64;98691.72;7746613;32;38224;-81
2022/11/16 09:38:27;;;;;;;39.08;17.37;;;;;;;10.58;68.76;98698.53;7738445;32;38963;-81
2022/11/16 09:43:27;;;;;;;32.17;15.68;;;;;;;10.53;68.69;98696.72;7719853;32;41303;-82
2022/11/16 09:48:01;;;;;;;37.53;17.35;;;;;;;10.51;69.29;98688.03;7761700;32;37937;-86
2022/11/16 09:52:39;;;;;;;37.88;16.92;;;;;;;10.80;68.36;98684.28;7738171;32;37713;-85
2022/11/16 09:57:02;;;;;;;38.03;18.33;;;;;;;10.97;67.74;98674.69;7752790;32;39498;-83
2022/11/16 10:01:33;;;;;;;33.75;17.10;;;;;;;10.78;68.40;98674.75;7725702;32;40218;-83
2022/11/16 10:06:04;;;;;;;34.20;16.80;;;;;;;10.97;67.75;98669.22;8014479;26;38113;-89
2022/11/16 10:10:33;;;;;;;34.47;15.70;;;;;;;10.94;67.81;98662.47;8352676;27;38225;-89
2022/11/16 10:15:25;;;;;;;35.17;16.80;;;;;;;11.06;68.38;98654.59;7756067;32;39171;-86
2022/11/16 10:20:06;;;;;;;34.88;16.25;;;;;;;10.94;68.16;98657.03;7773875;32;39904;-90
2022/11/16 10:24:41;;;;;;;34.88;15.77;;;;;;;11.10;67.06;98654.81;7776422;32;38404;-91
2022/11/16 10:29:32;;;;;;;34.28;15.95;;;;;;;11.05;67.38;98646.72;7756902;32;37180;-90
2022/11/16 10:33:50;;;;;;;37.90;16.45;;;;;;;11.01;67.37;98640.25;7747966;32;39277;-90
2022/11/16 10:38:16;;;;;;;37.13;17.55;;;;;;;11.22;67.07;98630.53;7752093;32;39353;-90
2022/11/16 10:42:35;;;;;;;33.78;16.02;;;;;;;11.23;66.48;98626.72;7766294;32;37936;-91
2022/11/16 10:47:21;;;;;;;32.53;15.27;;;;;;;11.24;66.86;98616.59;7752196;32;37205;-91
2022/11/16 10:51:38;;;;;;;38.70;17.35;;;;;;;10.98;67.92;98619.03;7760010;32;40085;-90
2022/11/16 10:56:16;;;;;;;36.47;17.17;;;;;;;11.35;67.05;98595.38;7765935;32;39970;-92
2022/11/16 11:00:45;;;;;;;38.90;17.15;;;;;;;11.41;67.75;98588.69;7751797;32;38743;-92
2022/11/16 11:05:18;;;;;;;35.95;16.90;;;;;;;11.62;66.29;98589.88;7764232;32;37221;-91
2022/11/16 11:09:36;;;;;;;;;;;;;;;11.74;66.10;98593.97;7765173;32;39219;-91
2022/11/16 11:14:18;;;;;;;35.90;17.10;;;;;;;11.85;66.07;98587.16;7762701;32;40300;-91
2022/11/16 11:18:34;;;;;;;35.22;15.95;;;;;;;11.82;66.19;98579.56;7763776;32;38549;-91
2022/11/16 11:22:55;;;;;;;34.75;16.98;;;;;;;11.91;65.85;98561.34;7766081;32;37874;-92
2022/11/16 11:27:12;;;;;;;35.53;16.08;;;;;;;12.01;65.74;98569.28;7751824;32;38172;-90
2022/11/16 11:31:48;;;;;;;34.75;15.88;;;;;;;12.11;65.36;98562.78;7750857;32;40803;-91
2022/11/16 11:36:18;;;;;;;35.72;16.10;;;;;;;11.77;66.02;98558.66;7737909;32;38468;-90
2022/11/16 11:40:34;;;;;;;36.28;17.50;;;;;;;11.91;65.21;98547.69;7753147;32;37383;-92
2022/11/16 11:44:55;;;;;;;38.65;16.58;;;;;;;11.60;66.14;98542.94;7756865;32;39344;-90
2022/11/16 11:49:30;;;;;;;37.90;17.58;;;;;;;11.29;67.13;98542.84;7754411;32;39374;-91
2022/11/16 11:53:57;;;;;;;34.45;17.33;;;;;;;11.16;67.32;98530.03;7754998;32;37881;-91
2022/11/16 11:58:18;;;;;;;30.88;15.32;;;;;;;11.54;66.16;98530.53;7754600;32;37176;-92
2022/11/16 12:02:46;;;;;;;37.03;16.90;;;;;;;11.22;67.02;98532.34;7768988;32;39401;-92
2022/11/16 12:07:30;;;;;;;36.15;16.60;;;;;;;11.27;67.18;98539.59;7753906;32;40210;-92
2022/11/16 12:12:14;;;;;;;30.48;15.50;;;;;;;11.55;65.81;98534.88;7768774;32;37942;-91
2022/11/16 12:16:34;;;;;;;33.15;14.77;;;;;;;11.48;65.57;98531.75;7755344;32;37318;-91
2022/11/16 12:20:56;;;;;;;35.70;16.27;;;;;;;11.32;66.23;98531.31;7753518;32;39423;-92
2022/11/16 12:25:34;;;;;;;34.97;16.02;;;;;;;11.76;64.84;98526.19;7767665;32;40072;-93
2022/11/16 12:30:02;;;;;;;32.05;15.13;;;;;;;11.28;66.41;98530.31;7768476;32;37960;-88
2022/11/16 12:34:36;;;;;;;31.50;16.27;;;;;;;11.29;66.41;98526.47;7767733;32;38191;-93
2022/11/16 12:39:30;;;;;;;29.00;15.68;;;;;;;11.28;66.62;98519.41;7767959;32;39420;-91
2022/11/16 12:43:53;;;;;;;;;;;;;;;11.27;66.66;98518.59;7769058;32;40367;-91
2022/11/16 12:48:37;;;;;;;28.23;14.27;;;;;;;11.56;65.70;98509.19;7768639;32;38378;-92
2022/11/16 12:52:59;;;;;;;30.27;15.07;;;;;;;11.86;64.56;98500.56;7768910;32;37150;-91
2022/11/16 12:57:56;;;;;;;29.52;15.38;;;;;;;11.49;65.83;98494.34;7769587;32;39791;-91
2022/11/16 13:02:50;;;;;;;29.33;14.95;;;;;;;10.83;68.63;98501.00;7769467;32;40808;-92
2022/11/16 13:07:24;;;;;;;29.37;15.38;;;;;;;11.07;68.00;98494.50;7774960;32;38171;-92
2022/11/16 13:11:45;;;;;;;26.87;15.15;;;;;;;11.08;67.67;98496.12;7766961;32;37655;-92
2022/11/16 13:16:04;;;;;;;24.00;13.35;;;;;;;11.24;67.55;98499.28;7764686;32;40379;-90
2022/11/16 13:20:30;;;;;;;25.25;13.35;;;;;;;11.16;67.64;98489.09;7750922;32;39489;-92
2022/11/16 13:24:57;;;;;;;30.30;14.50;;;;;;;11.22;67.25;98483.22;7766986;32;37916;-92
2022/11/16 13:29:51;;;;;;;26.67;13.52;;;;;;;10.93;68.39;98486.34;7744411;32;36572;-90
2022/11/16 13:34:21;;;;;;;25.35;14.02;;;;;;;10.92;68.26;98492.09;7674627;32;39490;-90
2022/11/16 13:38:51;;;;;;;25.25;14.20;;;;;;;11.36;66.99;98496.03;7751348;32;40080;-91
2022/11/16 13:43:11;;;;;;;25.17;13.43;;;;;;;10.87;69.13;98499.28;7763728;32;37997;-91
2022/11/16 13:47:29;;;;;;;24.60;13.93;;;;;;;11.20;67.97;98503.75;7764060;32;37270;-91
2022/11/16 13:51:57;;;;;;;28.33;13.80;;;;;;;11.03;68.41;98505.19;7763652;32;39148;-91
2022/11/16 13:56:47;;;;;;;28.60;14.57;;;;;;;11.21;67.94;98495.28;7741108;32;40036;-92
2022/11/16 14:01:07;;;;;;;26.27;14.35;;;;;;;11.11;68.17;98494.69;7749890;32;38002;-92
2022/11/16 14:05:32;;;;;;;24.00;13.52;;;;;;;11.18;68.15;98493.16;7762924;32;38010;-92
2022/11/16 14:09:49;;;;;;;25.92;13.23;;;;;;;11.09;68.68;98489.56;7763160;32;40297;-91
2022/11/16 14:14:09;;;;;;;22.52;11.65;;;;;;;11.33;67.75;98478.38;7748964;32;40614;-91
2022/11/16 14:18:35;;;;;;;25.83;12.55;;;;;;;11.45;67.46;98475.06;7753002;32;39081;-93
2022/11/16 14:23:15;;;;;;;26.23;13.10;;;;;;;11.16;68.31;98479.03;7753950;32;37228;-92
2022/11/16 14:27:41;;;;;;;22.10;12.18;;;;;;;11.19;68.32;98483.03;7730220;32;39315;-91
2022/11/16 14:32:00;;;;;;;22.08;11.77;;;;;;;11.37;67.68;98467.63;7753960;32;39924;-92
2022/11/16 14:36:16;;;;;;;27.80;13.52;;;;;;;11.04;68.70;98473.31;7766512;32;37670;-92
2022/11/16 14:40:47;;;;;;;21.75;12.00;;;;;;;11.00;69.09;98469.56;7752746;32;37425;-93
2022/11/16 14:45:12;;;;;;;24.37;13.40;;;;;;;11.05;68.85;98472.97;7754319;32;39261;-91
2022/11/16 14:49:32;;;;;;;22.95;13.18;;;;;;;11.40;67.57;98472.47;7753387;32;39902;-93
2022/11/16 14:53:51;;;;;;;23.08;12.65;;;;;;;11.20;67.99;98466.38;7752862;32;37986;-92
2022/11/16 14:58:15;;;;;;;20.58;11.75;;;;;;;11.22;67.88;98466.88;7766385;32;37317;-92
2022/11/16 15:02:32;;;;;;;21.75;12.32;;;;;;;10.88;69.00;98464.62;7766482;32;39124;-92
2022/11/16 15:07:01;;;;;;;23.50;12.82;;;;;;;11.14;68.27;98453.97;7752344;32;40812;-91
2022/11/16 15:12:40;;;;;;;21.55;12.20;;;;;;;10.97;68.92;98445.63;7753738;32;37708;-92
2022/11/16 15:16:14;;;;;;;22.90;12.18;;;;;;;11.04;68.60;98451.50;7754960;32;37318;-92
2022/11/16 15:20:36;;;;;;;23.08;12.50;;;;;;;11.41;67.21;98446.78;7766079;32;39417;-92
2022/11/16 15:25:01;;;;;;;21.77;12.32;;;;;;;11.49;66.77;98443.34;7766158;32;40764;-92
2022/11/16 15:29:19;;;;;;;21.77;12.10;;;;;;;11.54;66.58;98448.66;7766556;32;38865;-92
2022/11/16 15:33:41;;;;;;;26.05;12.25;;;;;;;11.08;67.89;98438.84;7766226;32;36205;-92
2022/11/16 15:38:05;;;;;;;22.23;12.63;;;;;;;11.15;67.81;98439.22;7753242;32;38962;-91
2022/11/16 15:42:21;;;;;;;27.95;13.62;;;;;;;11.25;67.60;98438.97;7766105;32;40685;-92
2022/11/16 15:46:38;;;;;;;26.77;14.30;;;;;;;11.38;67.19;98439.22;7766028;32;37846;-90
2022/11/16 15:51:03;;;;;;;27.30;15.35;;;;;;;11.16;68.07;98437.28;7766988;32;37198;-92
2022/11/16 15:55:40;;;;;;;29.75;15.75;;;;;;;11.00;68.39;98437.63;7770152;32;39277;-92
2022/11/16 15:59:57;;;;;;;26.55;14.80;;;;;;;11.43;66.87;98429.00;7771253;32;39809;-89
2022/11/16 16:04:17;;;;;;;29.42;15.20;;;;;;;10.97;68.29;98421.91;7779647;32;38209;-87
2022/11/16 16:08:37;;;;;;;30.67;15.27;;;;;;;10.88;68.72;98423.72;7761749;32;37589;-92
2022/11/16 16:12:56;;;;;;;32.88;16.27;;;;;;;10.60;70.07;98433.91;7776628;32;39973;-90
2022/11/16 16:17:23;;;;;;;32.45;16.12;;;;;;;10.52;70.49;98433.50;7777251;32;39972;-89
2022/11/16 16:21:45;;;;;;;28.40;14.93;;;;;;;10.84;69.49;98437.19;7766196;32;38297;-87
2022/11/16 16:26:04;;;;;;;33.35;16.98;;;;;;;10.73;69.67;98438.53;7779496;32;37451;-89
2022/11/16 16:30:21;;;;;;;29.90;16.50;;;;;;;11.19;68.21;98429.31;7780015;32;39673;-88
2022/11/16 16:34:37;;;;;;;31.27;16.77;;;;;;;10.92;68.98;98429.38;7780170;32;40383;-88
2022/11/16 16:38:57;;;;;;;29.73;17.17;;;;;;;11.34;67.82;98424.59;7776642;32;38248;-91
2022/11/16 16:43:13;;;;;;;31.83;16.60;;;;;;;11.44;67.39;98418.91;7777186;32;37556;-92
2022/11/16 16:47:30;;;;;;;34.50;17.12;;;;;;;11.25;67.69;98410.91;7768608;32;40366;-92
2022/11/16 16:51:46;;;;;;;30.12;16.98;;;;;;;10.88;68.71;98408.19;7752934;32;40050;-94
2022/11/16 16:56:02;;;;;;;29.40;16.05;;;;;;;11.17;67.93;98414.34;7772400;32;37934;-89
2022/11/16 17:00:19;;;;;;;28.12;15.82;;;;;;;10.85;68.89;98402.56;7762542;32;36362;-89
2022/11/16 17:04:35;;;;;;;25.75;14.57;;;;;;;11.36;67.09;98404.06;7765749;32;40086;-89
2022/11/16 17:08:52;;;;;;;37.42;16.25;;;;;;;10.97;68.14;98405.56;7779225;32;40264;-88
2022/11/16 17:13:09;;;;;;;29.52;16.23;;;;;;;10.83;68.90;98430.13;7779249;32;38312;-88
2022/11/16 17:17:26;;;;;;;32.13;16.25;;;;;;;11.12;68.12;98417.22;7778879;32;37457;-89
2022/11/16 17:21:42;;;;;;;30.33;15.45;;;;;;;10.97;68.64;98421.09;7763646;32;40418;-89
2022/11/16 17:26:01;;;;;;;33.45;15.77;;;;;;;11.22;67.87;98417.75;7778568;32;41010;-87
2022/11/16 17:30:17;;;;;;;34.22;18.95;;;;;;;11.29;67.39;98417.34;7778931;32;38110;-88
2022/11/16 17:34:34;;;;;;;31.77;17.83;;;;;;;11.12;67.93;98417.22;7778889;32;37659;-88
2022/11/16 17:38:50;;;;;;;31.30;16.95;;;;;;;11.08;68.07;98404.19;7778809;32;39687;-88
2022/11/16 17:43:06;;;;;;;32.95;19.00;;;;;;;11.09;68.02;98408.53;7778737;32;40207;-88
2022/11/16 17:47:23;;;;;;;38.55;22.00;;;;;;;11.06;68.24;98402.88;7778438;32;38202;-88
2022/11/16 17:51:39;;;;;;;40.65;22.75;;;;;;;10.98;68.68;98406.34;7780661;32;38370;-89
2022/11/16 17:55:55;;;;;;;46.90;24.25;;;;;;;11.33;67.46;98390.22;7782065;32;39672;-88
2022/11/16 18:00:12;;;;;;;71.55;27.37;;;;;;;11.20;67.67;98390.00;7781939;32;40302;-88
2022/11/16 18:04:29;;;;;;;58.83;27.75;;;;;;;11.17;68.03;98392.53;7781811;32;38351;-88
2022/11/16 18:08:45;;;;;;;49.95;26.55;;;;;;;11.05;68.44;98385.69;7782060;32;37646;-88
2022/11/16 18:13:03;;;;;;;56.28;28.23;;;;;;;11.04;68.28;98384.09;7781406;32;39502;-88
2022/11/16 18:17:19;;;;;;;47.90;26.00;;;;;;;11.09;68.15;98375.00;7773151;32;40664;-91
2022/11/16 18:21:39;;;;;;;47.78;25.15;;;;;;;11.01;68.32;98376.53;7767691;32;37734;-91
2022/11/16 18:25:55;;;;;;;48.28;23.02;;;;;;;11.02;68.49;98390.97;7766908;32;38029;-90
2022/11/16 18:30:12;;;;;;;49.92;25.15;;;;;;;11.09;68.27;98385.91;7766800;32;39076;-92
2022/11/16 18:34:28;;;;;;;39.97;21.85;;;;;;;10.98;68.39;98379.88;7767213;32;39909;-92
2022/11/16 18:38:45;;;;;;;36.28;19.65;;;;;;;11.12;68.16;98379.03;7770233;32;38732;-90
2022/11/16 18:43:01;;;;;;;35.53;18.80;;;;;;;10.88;68.77;98370.03;7767444;32;38558;-91
2022/11/16 18:47:17;;;;;;;37.80;19.92;;;;;;;10.91;68.62;98374.06;7761765;32;39972;-92
2022/11/16 18:51:34;;;;;;;39.92;20.35;;;;;;;11.02;68.28;98374.59;7752071;32;39847;-92
2022/11/16 18:55:51;;;;;;;46.37;22.08;;;;;;;10.70;69.50;98376.44;7750087;32;38053;-92
2022/11/16 19:00:14;;;;;;;42.90;20.97;;;;;;;11.05;68.16;98380.25;7749798;32;37627;-93
2022/11/16 19:04:30;;;;;;;45.70;23.55;;;;;;;11.28;67.44;98377.53;7765308;32;39191;-92
2022/11/16 19:08:47;;;;;;;49.85;24.50;;;;;;;11.13;67.96;98378.72;7766526;32;40753;-92
2022/11/16 19:13:11;;;;;;;51.03;25.35;;;;;;;10.71;69.71;98387.03;7753901;32;38778;-92
2022/11/16 19:17:28;;;;;;;54.47;26.12;;;;;;;10.73;69.46;98384.00;7767880;32;37196;-91
2022/11/16 19:21:44;;;;;;;44.15;23.58;;;;;;;10.81;69.24;98383.25;7767252;32;39504;-92
2022/11/16 19:26:03;;;;;;;53.35;25.25;;;;;;;10.94;68.91;98389.00;7765859;32;39978;-92
2022/11/16 19:30:19;;;;;;;48.90;23.75;;;;;;;11.01;68.47;98390.19;7750641;32;37751;-92
2022/11/16 19:34:36;;;;;;;47.90;24.33;;;;;;;10.85;68.95;98395.19;7752503;32;37288;-91
2022/11/16 19:38:54;;;;;;;42.60;21.55;;;;;;;11.05;68.25;98382.97;7719864;32;40301;-92
2022/11/16 19:43:10;;;;;;;43.47;21.12;;;;;;;11.10;67.93;98373.88;7737068;32;40757;-92
2022/11/16 19:47:28;;;;;;;42.88;21.37;;;;;;;10.88;68.81;98369.22;7747802;32;37952;-93
2022/11/16 19:51:44;;;;;;;44.88;21.90;;;;;;;10.89;68.81;98365.38;7733061;32;36946;-92
2022/11/16 19:56:02;;;;;;;38.17;20.33;;;;;;;10.75;69.31;98354.53;7750750;32;39437;-94
2022/11/16 20:00:19;;;;;;;41.75;20.50;;;;;;;10.71;69.32;98354.34;7744894;32;41422;-93
2022/11/16 20:04:59;;;;;;;38.45;20.30;;;;;;;10.89;68.57;98354.47;7744305;32;38395;-90
2022/11/16 20:09:15;;;;;;;37.22;20.20;;;;;;;10.75;68.95;98357.25;7760402;32;36991;-91
2022/11/16 20:13:31;;;;;;;40.70;19.62;;;;;;;10.83;68.67;98363.88;7761433;32;39064;-91
2022/11/16 20:17:48;;;;;;;49.55;21.98;;;;;;;10.51;69.57;98369.22;7748642;32;39981;-90
2022/11/16 20:22:04;;;;;;;43.90;21.40;;;;;;;10.40;70.34;98369.72;7762500;32;38668;-90
2022/11/16 20:26:23;;;;;;;48.15;22.55;;;;;;;10.46;69.99;98363.06;7762564;32;37403;-87
2022/11/16 20:30:46;;;;;;;56.70;24.30;;;;;;;10.38;70.42;98367.31;7761179;32;39381;-89
2022/11/16 20:35:03;;;;;;;51.85;24.27;;;;;;;10.11;71.55;98362.69;7761045;32;39891;-89
2022/11/16 20:39:20;;;;;;;44.35;23.50;;;;;;;10.08;71.60;98366.81;7762402;32;38383;-89
2022/11/16 20:43:40;;;;;;;53.63;25.70;;;;;;;10.46;70.39;98363.06;7752980;32;37698;-91
2022/11/16 20:47:58;;;;;;;48.65;24.73;;;;;;;10.28;70.90;98356.63;7769165;32;39944;-92